Time;durP1;ratioP1;P1;durP2;ratioP2;P2;SDS_P1;SDS_P2;PMS_P1;PMS_P2;Temp;Humidity;BMP_temperature;BMP_pressure;BME280_temperature;BME280_humidity;BME280_pressure;Samples;Min_cycle;Max_cycle;Signal;HPM_P1;HPM_P2
2022/11/16 00:01:21;;;;;;;68.35;33.97;;;;;;;6.22;87.42;99508.81;5030577;28;20030;-44
2022/11/16 00:03:46;;;;;;;66.40;33.28;;;;;;;6.23;87.42;99513.94;5030943;28;20420;-43
2022/11/16 00:06:13;;;;;;;66.20;33.00;;;;;;;6.28;87.31;99512.56;5030983;28;20430;-43
2022/11/16 00:08:42;;;;;;;62.53;33.10;;;;;;;6.27;87.21;99511.75;5030684;28;20036;-45
2022/11/16 00:11:17;;;;;;;68.07;35.33;;;;;;;6.16;87.43;99507.72;5030200;28;20054;-46
2022/11/16 00:13:43;;;;;;;66.25;33.97;;;;;;;6.12;87.40;99492.41;5030134;28;20026;-45
2022/11/16 00:16:16;;;;;;;68.20;34.80;;;;;;;6.03;88.32;99495.13;5030060;28;20470;-44
2022/11/16 00:18:43;;;;;;;74.40;35.47;;;;;;;6.19;90.44;99496.78;5030579;28;20079;-44
2022/11/16 00:21:09;;;;;;;68.18;35.10;;;;;;;6.12;88.53;99492.41;5030411;28;20029;-43
2022/11/16 00:23:37;;;;;;;68.70;35.72;;;;;;;6.14;88.11;99491.22;5029962;28;20050;-45
2022/11/16 00:26:07;;;;;;;66.43;34.88;;;;;;;6.23;88.02;99478.75;5030206;28;20033;-44
2022/11/16 00:28:33;;;;;;;70.60;35.60;;;;;;;6.06;88.35;99472.81;5030394;28;20037;-44
2022/11/16 00:31:03;;;;;;;64.95;34.38;;;;;;;6.06;87.84;99473.63;5030044;28;20029;-43
2022/11/16 00:33:29;;;;;;;77.28;36.80;;;;;;;5.96;87.71;99470.44;5030133;28;20071;-44
2022/11/16 00:35:54;;;;;;;66.90;35.92;;;;;;;5.82;88.89;99471.19;5029751;28;20013;-43
2022/11/16 00:38:20;;;;;;;70.18;36.35;;;;;;;5.80;89.84;99460.00;5029919;28;20009;-43
2022/11/16 00:40:45;;;;;;;69.80;34.58;;;;;;;5.82;88.58;99464.09;5030402;28;20021;-44
2022/11/16 00:43:11;;;;;;;67.47;35.00;;;;;;;5.85;88.89;99460.28;5029961;28;20469;-43
2022/11/16 00:45:38;;;;;;;67.70;34.40;;;;;;;5.89;88.71;99466.84;5030286;28;20033;-45
2022/11/16 00:48:04;;;;;;;68.28;34.58;;;;;;;6.06;88.31;99459.63;5029764;28;20084;-43
2022/11/16 00:50:30;;;;;;;67.18;35.47;;;;;;;6.17;87.76;99461.81;5029769;28;20053;-44
2022/11/16 00:52:55;;;;;;;68.07;35.45;;;;;;;6.03;87.83;99462.59;5033967;28;20155;-43
2022/11/16 00:55:20;;;;;;;70.30;34.88;;;;;;;6.01;88.16;99454.03;5033498;28;20029;-45
2022/11/16 00:57:46;;;;;;;67.30;34.00;;;;;;;5.89;88.48;99456.28;5033565;28;20025;-44
2022/11/16 01:00:12;;;;;;;67.95;34.30;;;;;;;5.98;88.37;99454.44;5033678;28;20040;-43
2022/11/16 01:02:39;;;;;;;61.72;32.17;;;;;;;5.99;88.21;99445.47;5033744;28;20033;-43
2022/11/16 01:05:05;;;;;;;62.60;31.67;;;;;;;6.21;87.27;99452.50;5033068;28;20028;-45
2022/11/16 01:07:31;;;;;;;66.55;33.00;;;;;;;6.15;87.25;99442.69;5033541;28;20075;-44
2022/11/16 01:09:56;;;;;;;58.72;31.13;;;;;;;6.17;87.93;99438.03;5033289;28;20029;-44
2022/11/16 01:12:22;;;;;;;57.42;29.55;;;;;;;6.12;88.14;99424.53;5033586;28;20021;-43
2022/11/16 01:14:47;;;;;;;60.08;30.80;;;;;;;6.23;87.67;99433.84;5033352;28;20029;-44
2022/11/16 01:17:13;;;;;;;60.17;30.75;;;;;;;6.14;87.84;99442.84;5033368;28;20021;-44
2022/11/16 01:19:40;;;;;;;58.53;30.55;;;;;;;6.02;88.17;99438.03;5033460;28;20331;-46
2022/11/16 01:22:05;;;;;;;58.22;30.42;;;;;;;6.02;88.37;99445.13;5033079;28;20363;-47
2022/11/16 01:24:31;;;;;;;58.83;30.23;;;;;;;6.05;88.50;99450.03;5033127;28;20029;-43
2022/11/16 01:26:57;;;;;;;58.95;29.55;;;;;;;5.94;88.31;99431.97;5033611;28;20044;-44
2022/11/16 01:29:27;;;;;;;58.40;29.98;;;;;;;6.13;88.18;99435.91;5033219;28;20040;-43
2022/11/16 01:31:54;;;;;;;60.60;30.30;;;;;;;6.05;88.48;99435.03;5033226;28;20097;-36
2022/11/16 01:34:20;;;;;;;59.22;29.92;;;;;;;6.24;87.57;99438.94;5033302;28;20037;-36
2022/11/16 01:36:46;;;;;;;56.40;29.15;;;;;;;6.03;88.54;99437.00;5032845;28;20133;-36
2022/11/16 01:39:12;;;;;;;54.85;29.63;;;;;;;6.08;87.94;99433.84;5032671;28;20509;-36
2022/11/16 01:41:38;;;;;;;57.10;29.25;;;;;;;6.05;88.71;99429.75;5032808;28;20477;-36
2022/11/16 01:44:26;;;;;;;56.28;28.67;;;;;;;5.94;89.02;99416.94;5032738;28;20029;-36
2022/11/16 01:46:51;;;;;;;54.17;27.88;;;;;;;5.89;88.26;99421.94;5032333;28;20041;-36
2022/11/16 01:49:21;;;;;;;51.65;27.52;;;;;;;5.88;88.07;99415.84;5033020;28;20021;-36
2022/11/16 01:51:50;;;;;;;51.60;27.48;;;;;;;5.97;87.66;99421.06;5032691;28;20025;-36
2022/11/16 01:54:16;;;;;;;52.33;27.93;;;;;;;6.00;87.97;99424.19;5032757;28;20539;-35
2022/11/16 01:56:45;;;;;;;54.08;27.58;;;;;;;5.84;88.37;99413.72;5032563;28;20299;-37
2022/11/16 01:59:12;;;;;;;52.10;26.92;;;;;;;5.81;87.90;99417.56;5033138;28;20365;-37
2022/11/16 02:01:38;;;;;;;53.38;27.30;;;;;;;5.76;88.77;99421.75;5032549;28;20462;-37
2022/11/16 02:04:03;;;;;;;53.78;27.60;;;;;;;5.59;89.36;99424.53;5031617;28;20070;-37
2022/11/16 02:06:52;;;;;;;52.28;27.05;;;;;;;5.82;89.10;99419.19;5032618;28;20547;-37
2022/11/16 02:12:46;;;;;;;51.92;27.83;;;;;;;5.64;88.57;99408.97;5032495;28;20068;-37
2022/11/16 02:15:20;;;;;;;53.95;29.13;;;;;;;5.90;87.91;99414.84;5032346;28;20128;-37
2022/11/16 02:17:46;;;;;;;55.08;29.08;;;;;;;5.74;87.79;99405.25;5031987;28;20021;-37
2022/11/16 02:20:45;;;;;;;53.47;27.77;;;;;;;5.68;88.52;99418.19;5032360;28;20031;-36
2022/11/16 02:23:31;;;;;;;52.42;27.58;;;;;;;5.61;88.86;99406.69;5031992;28;20483;-37
2022/11/16 02:26:27;;;;;;;52.38;27.73;;;;;;;5.55;88.50;99403.97;5032488;28;20048;-37
2022/11/16 02:29:11;;;;;;;53.97;27.52;;;;;;;5.55;88.68;99393.41;5032148;28;20036;-37
2022/11/16 02:31:41;;;;;;;56.90;29.55;;;;;;;5.75;88.37;99388.41;5032176;28;20033;-36
2022/11/16 02:34:10;;;;;;;53.67;27.45;;;;;;;5.68;88.48;99391.78;5032107;28;20481;-36
2022/11/16 02:36:39;;;;;;;51.80;27.90;;;;;;;5.68;87.94;99388.31;5031876;28;20064;-36
2022/11/16 02:39:09;;;;;;;53.17;28.38;;;;;;;5.70;88.29;99382.88;5032015;28;20040;-36
2022/11/16 02:41:38;;;;;;;52.05;28.02;;;;;;;5.74;87.54;99371.75;5031730;28;20032;-36
2022/11/16 02:44:13;;;;;;;52.22;28.60;;;;;;;5.76;88.60;99379.50;5032073;28;20025;-36
2022/11/16 02:46:42;;;;;;;48.67;26.55;;;;;;;5.74;87.74;99371.75;5031948;28;20041;-36
2022/11/16 02:49:18;;;;;;;53.17;27.95;;;;;;;5.70;88.47;99370.47;5031666;28;20029;-36
2022/11/16 02:51:46;;;;;;;54.05;27.95;;;;;;;5.66;88.69;99359.47;5031410;28;20501;-37
2022/11/16 02:54:17;;;;;;;54.33;29.08;;;;;;;5.72;87.95;99350.00;5031304;28;20516;-37
2022/11/16 02:57:06;;;;;;;56.38;28.98;;;;;;;5.67;87.67;99349.72;5031841;28;20147;-37
2022/11/16 02:59:45;;;;;;;51.80;27.90;;;;;;;5.61;88.23;99348.63;5030795;28;20100;-36
2022/11/16 03:02:44;;;;;;;55.10;27.38;;;;;;;5.73;87.79;99340.25;5031378;28;20457;-37
2022/11/16 03:05:34;;;;;;;53.20;26.73;;;;;;;5.68;86.88;99338.16;5031493;28;20029;-37
2022/11/16 03:08:22;;;;;;;53.80;28.00;;;;;;;5.66;87.27;99332.25;5031012;28;20521;-37
2022/11/16 03:13:42;;;;;;;53.20;28.67;;;;;;;5.73;88.08;99321.75;5030731;28;20103;-37
2022/11/16 03:16:17;;;;;;;57.42;29.50;;;;;;;5.62;88.08;99317.78;5031297;28;20100;-37
2022/11/16 03:18:45;;;;;;;56.40;29.30;;;;;;;5.58;88.32;99314.69;5030869;28;20379;-37
2022/11/16 03:21:27;;;;;;;60.33;29.95;;;;;;;5.74;87.98;99326.06;5031077;28;20026;-37
2022/11/16 03:23:52;;;;;;;52.40;28.00;;;;;;;5.73;86.96;99319.97;5030985;28;20064;-37
2022/11/16 03:26:22;;;;;;;52.35;27.77;;;;;;;5.53;87.64;99321.50;5030919;28;20477;-37
2022/11/16 03:29:00;;;;;;;55.92;28.55;;;;;;;5.36;87.85;99324.28;5031069;28;20029;-37
2022/11/16 03:31:33;;;;;;;49.35;27.65;;;;;;;5.46;87.59;99334.59;5030885;28;20056;-37
2022/11/16 03:34:04;;;;;;;55.45;29.30;;;;;;;5.36;88.23;99315.56;5031197;28;20013;-37
2022/11/16 03:36:33;;;;;;;57.90;28.73;;;;;;;5.23;88.71;99313.53;5030835;28;20036;-36
2022/11/16 03:39:09;;;;;;;54.70;29.17;;;;;;;5.28;88.45;99305.91;5030931;28;20452;-37
2022/11/16 03:41:38;;;;;;;58.05;28.73;;;;;;;4.96;90.12;99297.28;5030662;28;20109;-35
2022/11/16 03:44:07;;;;;;;56.28;28.80;;;;;;;5.23;88.99;99313.53;5030743;28;20510;-36
2022/11/16 03:46:33;;;;;;;56.92;29.10;;;;;;;5.16;87.69;99329.28;5031032;28;20057;-36
2022/11/16 03:49:00;;;;;;;54.10;28.02;;;;;;;5.07;88.17;99330.34;5036040;28;20474;-37
2022/11/16 03:51:26;;;;;;;54.10;27.20;;;;;;;5.16;87.90;99337.19;5044410;28;20029;-36
2022/11/16 03:53:51;;;;;;;54.72;28.23;;;;;;;5.09;88.36;99334.41;5038248;28;20484;-37
2022/11/16 03:56:17;;;;;;;51.72;27.35;;;;;;;5.07;89.02;99331.16;5045679;28;20945;-37
2022/11/16 03:58:42;;;;;;;55.22;27.67;;;;;;;5.15;89.07;99324.97;5047806;28;20052;-36
2022/11/16 04:01:08;;;;;;;56.65;28.30;;;;;;;5.27;88.39;99314.81;5049933;28;20083;-37
2022/11/16 04:03:33;;;;;;;60.63;29.27;;;;;;;5.28;89.40;99324.38;5049576;28;20024;-36
2022/11/16 04:25:22;;;;;;;54.08;28.50;;;;;;;4.75;89.69;99276.84;5049830;28;20040;-37
2022/11/16 04:38:43;;;;;;;56.53;29.27;;;;;;;4.98;88.23;99268.91;5033151;28;20391;-37
2022/11/16 04:42:13;;;;;;;58.95;29.20;;;;;;;4.89;88.79;99259.44;5032582;28;20430;-37
2022/11/16 04:43:56;;;;;;;60.83;30.10;;;;;;;4.89;89.99;99262.06;5032621;28;20045;-37
2022/11/16 04:49:05;;;;;;;54.45;28.48;;;;;;;5.01;89.59;99254.56;5033448;28;20370;-36
2022/11/16 04:51:31;;;;;;;62.85;28.40;;;;;;;5.06;89.04;99253.03;5033162;28;20025;-36
2022/11/16 04:53:56;;;;;;;63.35;29.42;;;;;;;4.88;89.00;99255.97;5032865;28;20157;-37
2022/11/16 04:56:22;;;;;;;59.08;28.30;;;;;;;4.89;90.60;99252.34;5032867;28;20021;-36
2022/11/16 04:58:47;;;;;;;61.97;30.25;;;;;;;4.88;90.02;99248.06;5032962;28;20071;-36
2022/11/16 05:01:13;;;;;;;57.83;28.08;;;;;;;4.73;90.16;99241.13;5032778;28;20462;-36
2022/11/16 05:03:39;;;;;;;59.10;28.88;;;;;;;4.79;91.21;99240.41;5033551;28;20013;-37
2022/11/16 05:06:04;;;;;;;60.05;29.05;;;;;;;4.88;90.85;99250.72;5033134;28;20444;-37
2022/11/16 05:08:30;;;;;;;71.40;35.22;;;;;;;4.88;91.04;99252.53;5033240;28;20515;-37
2022/11/16 05:10:55;;;;;;;97.70;45.05;;;;;;;4.90;90.73;99250.53;5032789;28;20029;-37
2022/11/16 05:13:20;;;;;;;75.68;37.03;;;;;;;4.87;90.78;99248.25;5031572;28;20485;-36
2022/11/16 05:15:46;;;;;;;63.22;29.88;;;;;;;4.76;91.31;99243.41;5032292;28;20087;-43
2022/11/16 05:18:11;;;;;;;64.53;29.23;;;;;;;4.68;90.24;99257.47;5031993;28;20112;-43
2022/11/16 05:26:04;;;;;;;71.30;32.15;;;;;;;4.79;91.77;99264.13;5031763;28;20040;-45
2022/11/16 05:28:30;;;;;;;70.28;32.70;;;;;;;5.36;91.61;99268.06;5032401;28;20026;-43
2022/11/16 05:30:55;;;;;;;65.00;31.48;;;;;;;6.24;87.73;99263.69;5031006;28;20063;-44
2022/11/16 05:33:21;;;;;;;62.22;31.48;;;;;;;6.77;82.57;99271.34;5032734;28;20026;-43
2022/11/16 05:35:49;;;;;;;68.07;32.95;;;;;;;7.03;79.88;99266.25;5032728;28;20393;-44
2022/11/16 05:38:15;;;;;;;65.50;31.80;;;;;;;7.42;78.11;99272.00;5031569;28;20025;-43
2022/11/16 05:40:40;;;;;;;59.00;31.88;;;;;;;7.70;76.93;99265.88;5032527;28;20047;-44
2022/11/16 05:43:05;;;;;;;60.20;32.17;;;;;;;7.91;76.11;99264.94;5032670;28;20030;-44
2022/11/16 05:45:31;;;;;;;67.07;34.15;;;;;;;8.17;75.24;99267.69;5031391;28;20017;-44
2022/11/16 05:47:56;;;;;;;59.70;32.72;;;;;;;8.39;74.71;99263.03;5030125;28;20523;-46
2022/11/16 05:50:22;;;;;;;72.65;37.38;;;;;;;8.60;73.95;99270.06;5030949;28;20548;-44
2022/11/16 05:52:47;;;;;;;65.05;36.50;;;;;;;8.87;72.96;99279.88;5031253;28;20028;-44
2022/11/16 05:55:12;;;;;;;64.35;34.75;;;;;;;9.02;71.85;99277.81;5031675;28;20017;-44
2022/11/16 05:57:38;;;;;;;59.72;32.17;;;;;;;9.30;71.44;99266.97;5031347;28;20543;-45
2022/11/16 06:00:04;;;;;;;59.88;30.55;;;;;;;9.38;70.59;99258.78;5032084;28;20025;-44
2022/11/16 06:02:31;;;;;;;72.00;39.00;;;;;;;9.50;70.74;99261.66;5032058;28;20021;-44
2022/11/16 06:04:57;;;;;;;55.67;29.30;;;;;;;8.78;74.94;99271.31;5032317;28;20055;-45
2022/11/16 06:07:22;;;;;;;84.60;45.90;;;;;;;8.75;79.42;99266.41;5032038;28;20029;-45
2022/11/16 06:09:48;;;;;;;73.35;40.70;;;;;;;9.31;77.40;99267.78;5032106;28;20151;-44
2022/11/16 06:12:13;;;;;;;71.18;41.50;;;;;;;9.92;75.28;99254.16;5031967;28;20044;-44
2022/11/16 06:14:38;;;;;;;58.58;30.67;;;;;;;10.34;71.96;99251.13;5032044;28;20402;-44
2022/11/16 06:17:04;;;;;;;58.45;32.63;;;;;;;10.59;70.56;99239.72;5031961;28;20332;-46
2022/11/16 06:19:29;;;;;;;45.72;26.60;;;;;;;11.23;68.96;99238.56;5032014;28;20029;-45
2022/11/16 06:21:55;;;;;;;47.20;26.77;;;;;;;11.67;66.07;99241.13;5031701;28;20037;-44
2022/11/16 06:24:21;;;;;;;43.60;24.73;;;;;;;12.02;65.40;99241.38;5032292;28;20473;-48
2022/11/16 06:26:46;;;;;;;43.65;25.95;;;;;;;11.82;64.29;99238.09;5031511;28;20014;-45
2022/11/16 06:29:12;;;;;;;42.88;24.65;;;;;;;12.20;64.33;99242.38;5031559;28;20021;-44
2022/11/16 06:31:37;;;;;;;41.25;23.40;;;;;;;12.45;62.21;99235.03;5031681;28;20060;-45
2022/11/16 06:34:02;;;;;;;42.03;24.17;;;;;;;12.77;61.70;99249.94;5031853;28;20109;-44
2022/11/16 06:36:28;;;;;;;38.92;23.77;;;;;;;13.07;61.17;99244.53;5031381;28;20022;-45
2022/11/16 06:38:53;;;;;;;36.22;22.98;;;;;;;13.26;59.43;99243.38;5031408;28;20026;-47
2022/11/16 06:41:19;;;;;;;40.40;23.60;;;;;;;13.23;59.48;99238.50;5031660;28;20466;-42
2022/11/16 06:43:44;;;;;;;45.10;23.88;;;;;;;13.36;58.77;99239.31;5032065;28;20022;-44
2022/11/16 06:46:10;;;;;;;43.67;25.23;;;;;;;13.39;58.16;99233.53;5031660;28;20033;-45
2022/11/16 06:48:35;;;;;;;42.63;26.15;;;;;;;12.95;58.94;99233.84;5031080;28;20447;-46
2022/11/16 06:51:01;;;;;;;45.17;25.23;;;;;;;13.39;58.36;99231.66;5031542;28;20465;-45
2022/11/16 06:53:26;;;;;;;41.30;25.95;;;;;;;13.67;56.66;99228.25;5031379;28;20021;-44
2022/11/16 06:55:52;;;;;;;48.30;28.27;;;;;;;13.86;56.22;99230.75;5031293;28;20017;-43
2022/11/16 06:58:17;;;;;;;47.60;27.45;;;;;;;13.82;56.89;99232.25;5031468;28;20409;-43
2022/11/16 07:00:43;;;;;;;41.45;24.13;;;;;;;14.20;56.06;99220.16;5031365;28;20489;-45
2022/11/16 07:03:08;;;;;;;39.28;22.67;;;;;;;14.70;54.86;99222.13;5030778;28;20047;-44
2022/11/16 07:05:37;;;;;;;36.58;22.95;;;;;;;15.17;53.37;99229.81;5031575;28;20627;-44
2022/11/16 07:08:02;;;;;;;35.63;21.98;;;;;;;15.37;52.33;99228.47;5031328;28;20057;-44
2022/11/16 07:10:28;;;;;;;34.20;22.13;;;;;;;15.76;51.71;99221.25;5031215;28;20130;-44
2022/11/16 07:12:54;;;;;;;33.97;21.92;;;;;;;15.92;51.03;99219.53;5031192;28;20468;-45
2022/11/16 07:15:19;;;;;;;38.38;22.77;;;;;;;16.24;50.08;99213.44;5030968;28;20542;-46
2022/11/16 07:17:45;;;;;;;40.15;24.25;;;;;;;16.07;49.99;99216.22;5030917;28;20078;-43
2022/11/16 07:20:11;;;;;;;38.33;22.98;;;;;;;16.45;49.77;99216.28;5031202;28;20086;-45
2022/11/16 07:22:36;;;;;;;35.58;21.98;;;;;;;16.59;49.06;99220.19;5030542;28;20042;-45
2022/11/16 07:25:02;;;;;;;36.53;22.98;;;;;;;16.84;48.61;99221.50;5030430;28;20041;-45
2022/11/16 07:27:28;;;;;;;35.75;22.73;;;;;;;16.67;48.63;99214.34;5030473;28;20385;-44
2022/11/16 07:29:54;;;;;;;38.65;23.33;;;;;;;16.52;48.66;99209.66;5030931;28;20029;-45
2022/11/16 07:32:19;;;;;;;33.90;23.05;;;;;;;16.77;48.65;99218.97;5030574;28;20048;-48
2022/11/16 07:34:45;;;;;;;33.10;21.85;;;;;;;16.17;50.49;99213.63;5030993;28;20064;-45
2022/11/16 07:37:10;;;;;;;36.13;22.52;;;;;;;16.41;49.40;99210.63;5030723;28;20067;-44
2022/11/16 07:39:35;;;;;;;36.00;22.23;;;;;;;16.36;49.47;99213.28;5030624;28;20485;-43
2022/11/16 07:42:01;;;;;;;36.08;23.13;;;;;;;17.00;47.31;99202.53;5030903;28;20022;-44
2022/11/16 07:44:26;;;;;;;32.83;22.00;;;;;;;17.41;46.03;99196.59;5031238;28;20036;-43
2022/11/16 07:46:52;;;;;;;35.20;23.05;;;;;;;17.52;46.55;99202.81;5030880;28;20082;-45
2022/11/16 07:49:18;;;;;;;35.13;22.58;;;;;;;17.49;46.27;99203.34;5030562;28;20405;-44
2022/11/16 07:51:44;;;;;;;35.83;22.25;;;;;;;17.31;46.05;99204.59;5030129;28;20025;-44
2022/11/16 07:54:14;;;;;;;35.92;23.13;;;;;;;17.14;45.73;99199.41;5029643;28;20029;-42
2022/11/16 07:56:40;;;;;;;33.78;22.50;;;;;;;17.58;45.23;99186.44;5030588;28;20116;-44
2022/11/16 07:59:06;;;;;;;34.50;23.67;;;;;;;17.86;45.24;99194.34;5030304;28;20041;-46
2022/11/16 08:01:32;;;;;;;31.45;21.25;;;;;;;18.16;44.54;99190.94;5029552;28;20033;-44
2022/11/16 08:03:58;;;;;;;36.05;22.42;;;;;;;18.23;43.20;99193.38;5030192;28;20040;-45
2022/11/16 08:06:26;;;;;;;39.72;23.48;;;;;;;18.09;43.51;99185.81;5030342;28;20029;-45
2022/11/16 08:08:51;;;;;;;35.30;22.70;;;;;;;18.27;44.07;99189.88;5030604;28;20131;-45
2022/11/16 08:11:17;;;;;;;34.35;22.80;;;;;;;18.62;43.12;99184.75;5030528;28;20045;-45
2022/11/16 08:13:43;;;;;;;35.45;23.50;;;;;;;18.31;44.34;99182.88;5030574;28;20087;-44
2022/11/16 08:16:14;;;;;;;32.92;22.60;;;;;;;18.63;43.52;99184.50;5030231;28;20021;-44
2022/11/16 08:18:41;;;;;;;32.08;22.10;;;;;;;18.77;43.76;99173.97;5030313;28;20091;-45
2022/11/16 08:21:08;;;;;;;35.15;23.58;;;;;;;18.21;44.42;99180.16;5030475;28;20114;-45
2022/11/16 08:23:34;;;;;;;33.08;22.98;;;;;;;18.42;42.89;99175.63;5029908;28;20045;-44
2022/11/16 08:26:06;;;;;;;35.90;23.77;;;;;;;18.25;43.35;99165.09;5030080;28;20131;-47
2022/11/16 08:28:32;;;;;;;35.70;23.02;;;;;;;18.54;43.32;99164.56;5029845;28;20025;-48
2022/11/16 08:30:59;;;;;;;37.90;23.67;;;;;;;18.39;44.35;99154.63;5030310;28;20555;-47
2022/11/16 08:33:27;;;;;;;37.38;24.25;;;;;;;18.38;44.29;99157.56;5030623;28;20025;-46
2022/11/16 08:35:53;;;;;;;32.40;22.77;;;;;;;18.40;42.73;99156.22;5030223;28;20116;-45
2022/11/16 08:38:19;;;;;;;36.28;23.52;;;;;;;18.09;43.93;99150.00;5030620;28;20021;-43
2022/11/16 08:40:46;;;;;;;34.90;22.98;;;;;;;18.28;43.36;99147.59;5030449;28;20025;-45
2022/11/16 08:43:12;;;;;;;35.90;24.45;;;;;;;18.46;42.52;99144.34;5030228;28;20117;-44
2022/11/16 08:45:37;;;;;;;39.55;25.70;;;;;;;18.59;42.41;99137.63;5029626;28;20053;-48
2022/11/16 08:48:04;;;;;;;36.38;23.70;;;;;;;18.47;43.35;99142.50;5030003;28;20026;-43
2022/11/16 08:50:30;;;;;;;38.28;24.88;;;;;;;18.80;42.61;99133.03;5029591;28;20021;-44
2022/11/16 08:52:56;;;;;;;38.05;24.23;;;;;;;19.08;41.85;99123.53;5029870;28;20516;-45
2022/11/16 08:55:21;;;;;;;42.67;25.45;;;;;;;19.30;41.20;99127.78;5029586;28;20056;-43
2022/11/16 08:57:47;;;;;;;36.97;25.17;;;;;;;18.80;43.25;99119.56;5029551;28;20056;-44
2022/11/16 09:00:13;;;;;;;37.72;25.05;;;;;;;19.04;42.50;99117.09;5030245;28;20109;-45
2022/11/16 09:02:38;;;;;;;42.65;25.52;;;;;;;19.34;42.27;99120.75;5030038;28;20104;-45
2022/11/16 09:05:04;;;;;;;41.38;23.55;;;;;;;19.32;40.50;99112.94;5029769;28;20026;-44
2022/11/16 09:07:30;;;;;;;37.35;25.10;;;;;;;19.47;40.43;99119.34;5029769;28;20029;-44
2022/11/16 09:09:55;;;;;;;33.22;23.02;;;;;;;19.49;40.86;99119.88;5029875;28;20394;-43
2022/11/16 09:12:20;;;;;;;35.42;23.88;;;;;;;19.52;41.22;99112.03;5031182;28;20078;-43
2022/11/16 09:14:46;;;;;;;36.40;23.30;;;;;;;18.97;42.26;99113.06;5033553;28;20100;-44
2022/11/16 09:17:11;;;;;;;31.17;21.98;;;;;;;18.99;41.68;99105.50;5033532;28;20018;-43
2022/11/16 09:19:37;;;;;;;29.13;21.52;;;;;;;18.90;41.56;99099.88;5033475;28;20071;-43
2022/11/16 09:22:02;;;;;;;31.40;21.50;;;;;;;19.29;40.21;99088.41;5033273;28;20025;-43
2022/11/16 09:24:28;;;;;;;34.90;21.55;;;;;;;19.25;40.24;99087.38;5033333;28;20026;-44
2022/11/16 09:26:55;;;;;;;32.40;21.83;;;;;;;18.91;40.92;99078.03;5033095;28;20021;-45
2022/11/16 09:29:21;;;;;;;31.73;21.55;;;;;;;18.67;41.72;99083.16;5033312;28;20017;-43
2022/11/16 09:31:46;;;;;;;31.48;20.38;;;;;;;18.58;41.54;99074.03;5033241;28;20112;-44
2022/11/16 09:34:11;;;;;;;30.65;20.45;;;;;;;18.79;41.34;99072.13;5033067;28;20071;-46
2022/11/16 09:36:37;;;;;;;30.08;20.52;;;;;;;18.91;42.22;99064.56;5033541;28;20033;-44
2022/11/16 09:39:03;;;;;;;29.20;19.52;;;;;;;19.01;42.64;99054.81;5033005;28;20037;-42
2022/11/16 09:41:59;;;;;;;30.27;19.58;;;;;;;19.21;40.39;99056.59;5032467;28;20029;-42
2022/11/16 09:44:45;;;;;;;34.10;20.17;;;;;;;19.13;40.15;99050.72;5032920;28;20026;-45
2022/11/16 09:47:18;;;;;;;29.05;19.13;;;;;;;18.80;41.90;99044.09;5032638;28;20025;-44
2022/11/16 09:50:04;;;;;;;30.20;18.75;;;;;;;18.71;42.51;99038.44;5032616;28;20061;-42
2022/11/16 09:52:36;;;;;;;30.98;20.17;;;;;;;19.08;41.29;99028.38;5032614;28;20052;-43
2022/11/16 09:55:16;;;;;;;31.27;20.80;;;;;;;19.39;40.60;99020.91;5032786;28;20493;-45
2022/11/16 09:57:43;;;;;;;29.95;19.60;;;;;;;19.07;40.96;99013.25;5032390;28;20504;-44
2022/11/16 10:00:16;;;;;;;29.33;18.88;;;;;;;19.10;40.73;98993.84;5032766;28;20112;-43
2022/11/16 10:02:47;;;;;;;27.35;18.42;;;;;;;18.74;42.46;99002.06;5032314;28;20512;-43
2022/11/16 10:05:20;;;;;;;28.45;19.15;;;;;;;18.76;42.84;98992.59;5032314;28;20018;-44
2022/11/16 10:07:54;;;;;;;32.58;19.25;;;;;;;18.89;42.33;98985.84;5032134;28;20088;-44
2022/11/16 10:10:36;;;;;;;29.65;20.27;;;;;;;19.21;41.85;98976.53;5031550;28;20485;-43
2022/11/16 10:13:07;;;;;;;32.05;20.95;;;;;;;19.66;41.45;98982.66;5032342;28;20516;-43
2022/11/16 10:15:47;;;;;;;29.42;19.65;;;;;;;19.79;40.51;98978.56;5031975;28;20030;-42
2022/11/16 10:18:25;;;;;;;28.17;19.42;;;;;;;19.31;42.00;98967.56;5032243;28;20029;-43
2022/11/16 10:21:08;;;;;;;32.33;22.05;;;;;;;18.58;43.78;98966.25;5031360;28;20093;-43
2022/11/16 10:23:40;;;;;;;33.03;21.38;;;;;;;18.36;44.41;98953.13;5031430;28;20073;-47
2022/11/16 10:26:18;;;;;;;33.05;22.13;;;;;;;18.68;44.32;98955.47;5032384;28;20492;-44
2022/11/16 10:29:26;;;;;;;30.23;21.75;;;;;;;19.06;43.17;98955.84;5032177;28;20030;-44
2022/11/16 10:32:27;;;;;;;29.52;20.83;;;;;;;19.58;41.88;98947.41;5023024;28;20533;-42
2022/11/16 10:35:14;;;;;;;31.02;20.73;;;;;;;19.43;42.12;98937.53;5030966;28;20569;-42
2022/11/16 10:37:49;;;;;;;34.55;21.52;;;;;;;19.46;42.79;98939.69;5031806;28;20029;-43
2022/11/16 10:40:18;;;;;;;29.23;21.27;;;;;;;19.57;42.26;98935.78;5031761;28;20021;-42
2022/11/16 10:42:53;;;;;;;32.22;21.33;;;;;;;19.37;42.59;98927.88;5032309;28;20036;-43
2022/11/16 10:45:26;;;;;;;32.78;21.27;;;;;;;19.63;41.99;98920.34;5032103;28;20028;-43
2022/11/16 10:47:59;;;;;;;28.73;20.50;;;;;;;19.24;43.24;98918.50;5031758;28;20025;-42
2022/11/16 10:50:39;;;;;;;31.13;20.83;;;;;;;19.56;42.28;98915.31;5031490;28;20135;-42
2022/11/16 10:53:05;;;;;;;27.08;18.98;;;;;;;19.79;42.22;98908.38;5031376;28;20036;-45
2022/11/16 10:55:31;;;;;;;30.67;20.10;;;;;;;19.92;41.48;98901.50;5031204;28;20033;-43
2022/11/16 10:57:59;;;;;;;30.23;19.80;;;;;;;19.99;41.42;98893.06;5031147;28;20071;-42
2022/11/16 11:00:38;;;;;;;29.02;19.15;;;;;;;20.26;40.72;98893.31;5030977;28;20461;-43
2022/11/16 11:03:04;;;;;;;29.42;19.83;;;;;;;20.65;40.34;98892.31;5030425;28;20065;-45
2022/11/16 11:05:30;;;;;;;30.92;19.65;;;;;;;20.56;39.89;98885.09;5030765;28;20123;-44
2022/11/16 11:08:02;;;;;;;28.33;19.33;;;;;;;20.52;39.93;98876.78;5031477;28;20040;-42
2022/11/16 11:10:38;;;;;;;29.30;19.58;;;;;;;20.46;40.35;98872.53;5031230;28;20025;-42
2022/11/16 11:13:09;;;;;;;26.38;19.05;;;;;;;20.66;39.43;98866.91;5031331;28;20029;-43
2022/11/16 11:15:35;;;;;;;31.70;19.35;;;;;;;20.78;40.91;98868.38;5031020;28;20125;-44
2022/11/16 11:18:23;;;;;;;35.88;25.00;;;;;;;20.71;40.85;98857.91;5031204;28;20396;-43
2022/11/16 11:21:05;;;;;;;28.67;19.52;;;;;;;20.50;39.53;98850.06;5031024;28;20025;-44
2022/11/16 11:23:42;;;;;;;26.58;18.50;;;;;;;20.77;39.18;98855.94;5030630;28;20506;-44
2022/11/16 11:26:27;;;;;;;24.23;17.77;;;;;;;21.02;39.15;98852.88;5031103;28;20030;-42
2022/11/16 11:28:53;;;;;;;27.92;19.35;;;;;;;20.97;39.12;98850.22;5030954;28;20132;-42
2022/11/16 11:31:27;;;;;;;27.63;19.17;;;;;;;20.26;40.27;98843.91;5030486;28;20108;-45
2022/11/16 11:33:56;;;;;;;27.25;19.02;;;;;;;20.17;40.97;98832.91;5030496;28;20109;-42
2022/11/16 11:36:24;;;;;;;30.50;18.98;;;;;;;20.34;40.17;98843.25;5030394;28;20022;-43
2022/11/16 11:39:06;;;;;;;27.97;18.30;;;;;;;20.40;40.00;98842.06;5030674;28;20025;-44
2022/11/16 11:42:10;;;;;;;27.52;18.05;;;;;;;20.55;40.21;98835.66;5030661;28;20501;-45
2022/11/16 11:44:36;;;;;;;25.73;18.63;;;;;;;19.68;42.17;98836.66;5030290;28;20394;-43
2022/11/16 11:47:17;;;;;;;27.98;18.42;;;;;;;19.53;42.90;98833.03;5030567;28;20090;-45
2022/11/16 11:49:51;;;;;;;29.27;18.52;;;;;;;19.49;42.81;98839.28;5031194;28;20022;-41
2022/11/16 11:52:33;;;;;;;24.92;17.55;;;;;;;19.71;42.32;98833.41;5030991;28;20220;-43
2022/11/16 11:55:01;;;;;;;24.55;16.88;;;;;;;19.69;42.72;98832.88;5030889;28;20048;-43
2022/11/16 11:57:27;;;;;;;24.35;17.20;;;;;;;20.04;42.05;98823.59;5030389;28;20051;-44
2022/11/16 11:59:53;;;;;;;24.27;17.25;;;;;;;20.26;41.78;98820.38;5030242;28;20025;-42
2022/11/16 12:02:37;;;;;;;27.38;17.55;;;;;;;20.28;40.90;98807.38;5030540;28;20049;-44
2022/11/16 12:05:11;;;;;;;22.80;16.88;;;;;;;19.88;42.23;98819.50;5030217;28;20417;-45
2022/11/16 12:07:53;;;;;;;29.38;17.10;;;;;;;20.32;41.44;98802.22;5029819;28;20028;-43
2022/11/16 12:10:28;;;;;;;23.73;16.85;;;;;;;20.27;41.56;98802.25;5030277;28;20017;-44
2022/11/16 12:13:20;;;;;;;23.05;16.77;;;;;;;20.23;41.38;98806.66;5030288;28;20033;-44
2022/11/16 12:16:06;;;;;;;25.52;16.70;;;;;;;19.88;42.28;98806.00;5030185;28;20505;-44
2022/11/16 12:18:57;;;;;;;24.67;17.30;;;;;;;19.76;42.83;98792.88;5030188;28;20030;-43